Impacts TAF Board
For situational awareness. Not to be used for flight planning purposes.
IDs:

KHOT - Hot Springs Mem, AR, US

Issued at 0538 UTC 18 Sep 2021
Updated at 0650 UTC 18 Sep 2021
Potential Impact None Slight Moderate High
Time0553Z 18/07Z 18/08Z 18/09Z 18/10Z 18/11Z 18/12Z 18/13Z 18/14Z 18/15Z 18/16Z 18/17Z 18/18Z 18/19Z>>
Type OBS PRVL PRVL PRVL PRVL PRVL PRVL PRVL PRVL PRVL PRVL PRVL PRVL PRVL
VIS 10 >6 6 6 4 4 4 4 4 4 >6 >6 >6 >6
CIG -- 80 25 25 10 10 10 10 10 10 35 35 35 35
Cover FEW BKN BKN BKN OVC OVC OVC OVC OVC OVC OVC OVC OVC OVC
FltCat VFR VFR MVFR MVFR MVFR MVFR MVFR MVFR MVFR MVFR VFR VFR VFR VFR
WX -- -- BR BR BR BR BR BR BR BR VCSH VCSH VCSH VCSH
WDir 70 80 VRB VRB VRB VRB VRB VRB VRB VRB 100 100 100 100
WSpd 6 6 3 3 4 4 4 4 4 4 7 7 7 7
WGst -- -- -- -- -- -- -- -- -- -- -- -- -- --
Raw TAF
KHOT 180538Z 1806/1906 08006KT P6SM SCT040 BKN080
  FM180800 VRB03KT 6SM BR SCT010 BKN025
  FM181000 VRB04KT 4SM BR BKN010 OVC020
  FM181600 10007KT P6SM VCSH BKN035 OVC060
  FM190200 08005KT P6SM BKN050


Raw METAR
KHOT 180553Z AUTO 07006KT 10SM FEW014 24/22 A3004 RMK AO2 SLP165 T02390217 10256 20233 403110222 55001
KHOT 180453Z AUTO 08006KT 10SM CLR 24/21 A3004 RMK AO2 SLP164 T02390211
KHOT 180353Z AUTO 07005KT 10SM FEW080 24/21 A3005 RMK AO2 SLP168 T02390206

METAR Board
Radar Display
Forecast Discussion
For situational awareness. Not to be used for flight planning purposes.